createdAt,value
2022-10-25T00:01:51.771Z,42.58
2022-10-25T00:06:55.220Z,42.97
2022-10-25T00:11:59.927Z,42.97
2022-10-25T00:17:03.529Z,39.90
2022-10-25T00:22:07.044Z,39.30
2022-10-25T00:27:11.785Z,41.78
2022-10-25T00:32:15.197Z,41.28
2022-10-25T00:37:18.839Z,40.30
2022-10-25T00:42:25.583Z,39.40
2022-10-25T00:47:38.928Z,38.88
2022-10-25T00:52:44.629Z,40.45
2022-10-25T00:57:55.634Z,38.92
2022-10-25T01:02:59.309Z,41.92
2022-10-25T01:08:02.936Z,38.60
2022-10-25T01:13:07.945Z,39.53
2022-10-25T01:18:16.238Z,37.67
2022-10-25T01:23:32.058Z,39.35
2022-10-25T01:28:50.919Z,39.10
2022-10-25T01:33:59.233Z,38.33
2022-10-25T01:39:11.499Z,39.63
2022-10-25T01:44:27.703Z,40.28
2022-10-25T01:49:42.594Z,39.63
2022-10-25T01:54:45.886Z,43.08
2022-10-25T02:00:07.370Z,44.72
2022-10-25T02:05:26.215Z,44.53
2022-10-25T02:16:23.299Z,43.35
2022-10-25T02:21:29.744Z,48.35
2022-10-25T02:26:35.538Z,44.40
2022-10-25T02:31:39.461Z,44.65
2022-10-25T02:36:44.177Z,43.83
2022-10-25T02:41:47.541Z,40.00
2022-10-25T02:46:50.881Z,42.17
2022-10-25T02:51:55.561Z,41.55
2022-10-25T02:56:58.981Z,40.35
2022-10-25T03:09:09.929Z,39.05
2022-10-25T03:14:13.328Z,40.15
2022-10-25T03:19:16.690Z,39.63
2022-10-25T03:24:21.495Z,42.08
2022-10-25T03:29:24.855Z,39.20
2022-10-25T03:34:28.455Z,39.67
2022-10-25T03:39:33.274Z,39.63
2022-10-25T03:44:36.622Z,40.42
2022-10-25T03:49:40.029Z,43.80
2022-10-25T03:54:44.721Z,45.67
2022-10-25T03:59:48.074Z,46.58
2022-10-25T04:04:51.430Z,47.45
2022-10-25T04:09:56.214Z,50.17
2022-10-25T04:14:59.582Z,56.25
2022-10-25T04:20:02.989Z,57.15
2022-10-25T04:25:08.692Z,55.63
2022-10-25T04:30:13.118Z,54.85
2022-10-25T04:35:16.911Z,57.45
2022-10-25T04:40:24.091Z,57.35
2022-10-25T04:45:28.298Z,57.25
2022-10-25T04:50:31.820Z,53.22
2022-10-25T04:55:37.527Z,50.58
2022-10-25T05:00:41.135Z,47.97
2022-10-25T05:05:44.593Z,47.47
2022-10-25T05:10:55.882Z,45.30
2022-10-25T05:15:59.892Z,46.22
2022-10-25T05:21:06.896Z,43.40
2022-10-25T05:26:13.656Z,42.90
2022-10-25T05:31:20.295Z,41.33
2022-10-25T05:36:25.416Z,39.50
2022-10-25T05:41:33.400Z,37.85
2022-10-25T05:46:39.672Z,40.70
2022-10-25T05:51:43.177Z,35.45
2022-10-25T05:56:48.061Z,44.50
2022-10-25T06:01:51.948Z,38.08
2022-10-25T06:06:55.675Z,36.80
2022-10-25T06:12:01.150Z,36.10
2022-10-25T06:17:05.921Z,32.40
2022-10-25T06:22:09.442Z,31.13
2022-10-25T06:27:14.261Z,30.65
2022-10-25T06:32:17.645Z,28.73
2022-10-25T06:37:25.184Z,27.58
2022-10-25T06:42:30.136Z,28.08
2022-10-25T06:47:34.576Z,25.98
2022-10-25T06:52:37.935Z,26.17
2022-10-25T06:57:42.679Z,26.83
2022-10-25T07:02:55.254Z,29.63
2022-10-25T07:07:58.767Z,25.98
2022-10-25T07:13:03.618Z,26.40
2022-10-25T07:18:07.152Z,23.17
2022-10-25T07:23:10.698Z,23.15
2022-10-25T07:28:15.526Z,24.55
2022-10-25T07:33:20.944Z,23.92
2022-10-25T07:38:27.685Z,22.40
2022-10-25T07:43:33.629Z,22.70
2022-10-25T07:48:37.271Z,23.90
2022-10-25T07:53:40.746Z,22.20
2022-10-25T07:58:45.801Z,23.58
2022-10-25T08:03:49.525Z,24.52
2022-10-25T08:08:53.210Z,29.70
2022-10-25T08:13:58.401Z,24.92
2022-10-25T08:19:01.787Z,27.75
2022-10-25T08:24:06.022Z,28.40
2022-10-25T08:29:11.293Z,30.50
2022-10-25T08:34:14.721Z,28.33
2022-10-25T08:39:18.449Z,27.58
2022-10-25T08:44:30.871Z,26.42
2022-10-25T08:49:42.434Z,29.52
2022-10-25T08:54:46.922Z,26.83
2022-10-25T08:59:54.549Z,29.10
2022-10-25T09:04:57.911Z,27.70
2022-10-25T09:10:11.023Z,26.13
2022-10-25T09:15:26.981Z,28.25
2022-10-25T09:20:34.541Z,24.45
2022-10-25T09:25:47.605Z,21.45
2022-10-25T09:30:57.366Z,20.38
2022-10-25T09:36:01.030Z,19.73
2022-10-25T09:41:06.910Z,20.17
2022-10-25T09:46:16.512Z,18.25
2022-10-25T09:51:25.594Z,16.60
2022-10-25T09:56:29.066Z,17.63
2022-10-25T10:01:37.787Z,14.68
2022-10-25T10:06:41.796Z,14.52
2022-10-25T10:11:48.729Z,14.57
2022-10-25T10:16:57.390Z,11.88
2022-10-25T10:22:02.831Z,12.32
2022-10-25T10:27:09.661Z,15.02
2022-10-25T10:32:25.738Z,12.98
2022-10-25T10:37:31.200Z,13.10
2022-10-25T10:42:36.487Z,12.65
2022-10-25T10:47:45.084Z,10.50
2022-10-25T10:52:58.161Z,12.43
2022-10-25T10:58:06.036Z,11.70
2022-10-25T11:03:59.181Z,11.80
2022-10-25T11:09:17.113Z,10.18
2022-10-25T11:14:21.853Z,16.48
2022-10-25T11:19:43.411Z,12.77
2022-10-25T11:24:56.733Z,7.80
2022-10-25T11:30:14.256Z,10.38
2022-10-25T11:35:39.481Z,9.13
2022-10-25T11:40:49.448Z,6.50
2022-10-25T11:46:00.410Z,6.68
2022-10-25T11:51:13.634Z,6.28
2022-10-25T11:56:28.783Z,8.48
2022-10-25T12:01:48.375Z,9.30
2022-10-25T12:07:01.585Z,8.02
2022-10-25T12:12:09.611Z,5.05
2022-10-25T12:17:20.679Z,10.18
2022-10-25T12:22:29.889Z,4.68
2022-10-25T12:27:36.462Z,6.75
2022-10-25T12:32:44.093Z,8.50
2022-10-25T12:37:56.454Z,7.40
2022-10-25T12:43:14.521Z,6.70
2022-10-25T12:48:31.759Z,7.97
2022-10-25T12:54:06.080Z,8.90
2022-10-25T12:59:17.121Z,8.52
2022-10-25T13:04:58.502Z,12.43
2022-10-25T13:10:06.878Z,11.93
2022-10-25T13:15:19.609Z,11.13
2022-10-25T13:20:49.497Z,17.40
2022-10-25T13:31:32.112Z,7.15
2022-10-25T13:36:48.026Z,5.50
2022-10-25T13:42:18.121Z,5.63
2022-10-25T13:47:38.141Z,5.50
2022-10-25T13:52:54.750Z,9.57
2022-10-25T13:58:02.444Z,6.70
2022-10-25T14:03:22.121Z,7.70
2022-10-25T14:08:29.142Z,7.80
2022-10-25T14:13:46.173Z,8.25
2022-10-25T14:18:51.024Z,6.63
2022-10-25T14:23:55.631Z,5.75
2022-10-25T14:29:18.777Z,8.35
2022-10-25T14:34:24.711Z,7.65
2022-10-25T14:39:30.771Z,5.95
2022-10-25T14:44:46.800Z,7.68
2022-10-25T14:49:50.555Z,6.97
2022-10-25T14:54:59.076Z,10.07
2022-10-25T15:00:05.944Z,13.27
2022-10-25T15:05:19.381Z,12.60
2022-10-25T15:10:43.702Z,9.43
2022-10-25T15:15:50.607Z,13.07
2022-10-25T15:21:04.091Z,15.02
2022-10-25T15:26:28.682Z,13.40
2022-10-25T15:31:33.878Z,12.85
2022-10-25T15:36:37.292Z,13.70
2022-10-25T15:41:40.844Z,27.08
2022-10-25T15:46:45.844Z,31.50
2022-10-25T15:51:49.556Z,25.92
2022-10-25T15:56:54.173Z,22.63
2022-10-25T16:01:59.503Z,26.75
2022-10-25T16:07:02.869Z,23.35
2022-10-25T16:12:08.390Z,17.88
2022-10-25T16:17:14.412Z,10.80
2022-10-25T16:22:17.902Z,12.73
2022-10-25T16:27:21.398Z,22.48
2022-10-25T16:32:26.182Z,36.58
2022-10-25T16:37:29.521Z,15.13
2022-10-25T16:42:34.958Z,14.43
2022-10-25T16:47:40.466Z,20.40
2022-10-25T16:52:43.901Z,26.88
2022-10-25T17:02:53.605Z,25.02
2022-10-25T17:07:58.018Z,25.42
2022-10-25T17:13:03.502Z,25.83
2022-10-25T17:18:08.654Z,41.40
2022-10-25T17:23:13.582Z,32.30
2022-10-25T17:28:17.049Z,24.50
2022-10-25T17:33:22.485Z,23.73
2022-10-25T17:38:26.357Z,25.40
2022-10-25T17:43:29.831Z,27.23
2022-10-25T17:48:34.873Z,32.03
2022-10-25T17:53:38.501Z,34.90
2022-10-25T17:58:47.197Z,33.55
2022-10-25T18:03:56.665Z,32.63
2022-10-25T18:09:00.347Z,37.72
2022-10-25T18:14:04.123Z,35.03
2022-10-25T18:19:13.491Z,38.20
2022-10-25T18:24:17.096Z,36.03
2022-10-25T18:29:23.563Z,39.08
2022-10-25T18:34:29.919Z,32.38
2022-10-25T18:39:33.415Z,33.22
2022-10-25T18:44:36.873Z,28.77
2022-10-25T18:49:41.770Z,28.48
2022-10-25T18:54:45.177Z,31.45
2022-10-25T18:59:48.838Z,29.83
2022-10-25T19:04:53.778Z,31.40
2022-10-25T19:09:57.283Z,42.13
2022-10-25T19:15:00.745Z,25.85
2022-10-25T19:20:07.667Z,24.55
2022-10-25T19:25:11.343Z,26.63
2022-10-25T19:30:15.043Z,30.33
2022-10-25T19:35:20.916Z,29.30
2022-10-25T19:40:24.420Z,32.90
2022-10-25T19:45:27.977Z,27.30
2022-10-25T19:50:33.094Z,27.95
2022-10-25T19:55:36.752Z,28.55
2022-10-25T20:00:40.567Z,29.60
2022-10-25T20:05:45.341Z,27.60
2022-10-25T20:10:48.910Z,31.30
2022-10-25T20:15:55.554Z,26.90
2022-10-25T20:21:02.374Z,30.08
2022-10-25T20:26:14.257Z,28.58
2022-10-25T20:31:19.438Z,28.30
2022-10-25T20:36:46.258Z,27.95
2022-10-25T20:42:06.012Z,28.30
2022-10-25T20:47:10.463Z,32.53
2022-10-25T20:52:15.313Z,29.55
2022-10-25T20:57:19.013Z,27.83
2022-10-25T21:02:23.140Z,29.35
2022-10-25T21:07:30.965Z,29.60
2022-10-25T21:12:36.111Z,31.38
2022-10-25T21:17:39.595Z,29.35
2022-10-25T21:22:47.031Z,28.83
2022-10-25T21:27:54.965Z,26.20
2022-10-25T21:32:58.420Z,25.30
2022-10-25T21:38:03.186Z,26.25
2022-10-25T21:43:09.264Z,27.08
2022-10-25T21:48:12.691Z,27.75
2022-10-25T21:53:17.507Z,27.23
2022-10-25T21:58:20.855Z,28.25
2022-10-25T22:03:26.929Z,27.58
2022-10-25T22:08:32.530Z,29.02
2022-10-25T22:13:36.412Z,25.45
2022-10-25T22:18:40.153Z,27.65
2022-10-25T22:23:45.037Z,27.02
2022-10-25T22:28:52.746Z,26.85
2022-10-25T22:33:58.183Z,27.98
2022-10-25T22:39:03.935Z,28.67
2022-10-25T22:44:07.463Z,28.67
2022-10-25T22:49:11.290Z,30.40
2022-10-25T22:54:15.955Z,28.52
2022-10-25T22:59:19.426Z,29.15
2022-10-25T23:04:22.953Z,27.13
2022-10-25T23:19:39.335Z,24.35
2022-10-25T23:24:44.048Z,27.40
2022-10-25T23:29:47.372Z,28.15
2022-10-25T23:34:52.543Z,27.25
2022-10-25T23:39:59.671Z,27.25
2022-10-25T23:45:05.363Z,28.35
2022-10-25T23:50:10.205Z,29.70
2022-10-25T23:55:15.082Z,29.80
